AXM5143 WMKJ-WMKK
Flight info
| Callsign | AXM5143 |
|---|---|
| Flight time | N/A |
| Altitude | 20000 |
| Route | SABKA1K SABKA A457 GUPTA GUPTA1G |
| Aircraft | A320/M-SDE3FGHIRWY/LB1 |
Departure
| Time | 2026-04-28 13:50 |
|---|---|
| Airport | Senai International Airport (WMKJ) |
Arrival
| Time | N/A |
|---|---|
| Airport | Kuala Lumpur International Airport (WMKK) |
| Time | Latitude | Longitude | Altitude | Speed | Heading |
|---|---|---|---|---|---|
| 2026-04-28 13:47 | 1.63362 | 103.66954 | 205 ft | 10 kts | 68° |
| 2026-04-28 13:47 | 1.63322 | 103.67026 | 203 ft | 21 kts | 152° |
| 2026-04-28 13:48 | 1.63168 | 103.67083 | 207 ft | 21 kts | 162° |
| 2026-04-28 13:48 | 1.63065 | 103.67120 | 206 ft | 19 kts | 161° |
| 2026-04-28 13:48 | 1.62894 | 103.67184 | 208 ft | 29 kts | 160° |
| 2026-04-28 13:48 | 1.62739 | 103.67246 | 200 ft | 9 kts | 145° |
| 2026-04-28 13:49 | 1.62738 | 103.67358 | 201 ft | 26 kts | 70° |
| 2026-04-28 13:49 | 1.62776 | 103.67406 | 204 ft | 12 kts | 7° |
| 2026-04-28 13:49 | 1.62932 | 103.67347 | 205 ft | 55 kts | 341° |
| 2026-04-28 13:49 | 1.63596 | 103.67119 | 205 ft | 140 kts | 341° |
| 2026-04-28 13:50 | 1.64693 | 103.66715 | 211 ft | 197 kts | 339° |
| 2026-04-28 13:50 | 1.66124 | 103.66160 | 413 ft | 225 kts | 338° |
| 2026-04-28 13:50 | 1.67506 | 103.65508 | 1385 ft | 220 kts | 326° |
| 2026-04-28 13:50 | 1.68495 | 103.64293 | 1962 ft | 240 kts | 300° |
| 2026-04-28 13:51 | 1.69232 | 103.62698 | 2407 ft | 264 kts | 293° |
| 2026-04-28 13:51 | 1.69912 | 103.60953 | 3174 ft | 272 kts | 291° |
| 2026-04-28 13:51 | 1.70601 | 103.59182 | 4053 ft | 276 kts | 292° |
| 2026-04-28 13:51 | 1.71337 | 103.57388 | 4932 ft | 280 kts | 293° |
| 2026-04-28 13:52 | 1.72115 | 103.55598 | 5783 ft | 284 kts | 294° |
| 2026-04-28 13:52 | 1.72935 | 103.53791 | 6605 ft | 288 kts | 295° |
| 2026-04-28 13:52 | 1.73785 | 103.51964 | 7398 ft | 292 kts | 295° |
| 2026-04-28 13:52 | 1.74659 | 103.50108 | 8182 ft | 296 kts | 296° |
| 2026-04-28 13:53 | 1.75544 | 103.48238 | 8993 ft | 300 kts | 296° |
| 2026-04-28 13:53 | 1.76441 | 103.46342 | 9774 ft | 304 kts | 296° |
| 2026-04-28 13:53 | 1.77360 | 103.44396 | 10209 ft | 320 kts | 296° |
| 2026-04-28 13:53 | 1.78342 | 103.42310 | 10425 ft | 343 kts | 296° |
| 2026-04-28 13:54 | 1.79391 | 103.40085 | 10711 ft | 360 kts | 296° |
| 2026-04-28 13:54 | 1.80466 | 103.37800 | 11302 ft | 366 kts | 295° |
| 2026-04-28 13:54 | 1.81553 | 103.35487 | 11953 ft | 370 kts | 295° |
| 2026-04-28 13:54 | 1.82657 | 103.33142 | 12618 ft | 373 kts | 295° |
| 2026-04-28 13:55 | 1.83766 | 103.30786 | 13282 ft | 377 kts | 295° |
| 2026-04-28 13:55 | 1.84888 | 103.28400 | 13892 ft | 380 kts | 296° |
| 2026-04-28 13:55 | 1.86033 | 103.26007 | 14458 ft | 384 kts | 296° |
| 2026-04-28 13:55 | 1.87213 | 103.23604 | 15019 ft | 387 kts | 297° |
| 2026-04-28 13:56 | 1.88414 | 103.21183 | 15559 ft | 391 kts | 297° |
| 2026-04-28 13:56 | 1.89633 | 103.18727 | 16088 ft | 395 kts | 297° |
| 2026-04-28 13:56 | 1.90851 | 103.16265 | 16638 ft | 398 kts | 297° |
| 2026-04-28 13:56 | 1.92083 | 103.13767 | 17155 ft | 402 kts | 297° |
| 2026-04-28 13:57 | 1.93318 | 103.11252 | 17682 ft | 405 kts | 297° |
| 2026-04-28 13:57 | 1.94566 | 103.08703 | 18166 ft | 409 kts | 296° |
| 2026-04-28 13:57 | 1.95817 | 103.06143 | 18601 ft | 412 kts | 297° |
| 2026-04-28 13:57 | 1.97079 | 103.03563 | 19027 ft | 415 kts | 297° |
| 2026-04-28 13:58 | 1.98353 | 103.00961 | 19464 ft | 418 kts | 297° |
| 2026-04-28 13:58 | 1.99640 | 102.98337 | 19776 ft | 420 kts | 297° |
| 2026-04-28 13:58 | 2.00925 | 102.95713 | 19862 ft | 425 kts | 297° |
| 2026-04-28 13:58 | 2.02240 | 102.93026 | 19875 ft | 435 kts | 297° |
| 2026-04-28 13:59 | 2.03577 | 102.90294 | 19875 ft | 438 kts | 297° |
| 2026-04-28 13:59 | 2.04464 | 102.88479 | 19874 ft | 439 kts | 297° |
| 2026-04-28 13:59 | 2.05802 | 102.85743 | 19874 ft | 439 kts | 297° |
| 2026-04-28 13:59 | 2.07142 | 102.83000 | 19875 ft | 439 kts | 297° |
| 2026-04-28 14:00 | 2.08479 | 102.80264 | 19874 ft | 439 kts | 297° |
| 2026-04-28 14:00 | 2.09823 | 102.77516 | 19878 ft | 439 kts | 297° |
| 2026-04-28 14:00 | 2.11166 | 102.74772 | 19880 ft | 438 kts | 297° |
| 2026-04-28 14:00 | 2.12498 | 102.72041 | 19880 ft | 438 kts | 296° |
| 2026-04-28 14:01 | 2.14266 | 102.68411 | 19880 ft | 438 kts | 296° |
| 2026-04-28 14:01 | 2.15165 | 102.66563 | 19879 ft | 438 kts | 296° |
| 2026-04-28 14:01 | 2.16501 | 102.63826 | 19877 ft | 434 kts | 297° |
| 2026-04-28 14:01 | 2.17806 | 102.61165 | 19870 ft | 422 kts | 297° |
| 2026-04-28 14:02 | 2.19093 | 102.58545 | 19869 ft | 420 kts | 297° |
| 2026-04-28 14:02 | 2.20325 | 102.55896 | 19868 ft | 420 kts | 290° |
| 2026-04-28 14:02 | 2.21047 | 102.53109 | 19868 ft | 420 kts | 276° |
| 2026-04-28 14:02 | 2.20894 | 102.50140 | 19871 ft | 432 kts | 259° |
| 2026-04-28 14:03 | 2.20302 | 102.47212 | 19871 ft | 437 kts | 258° |
| 2026-04-28 14:03 | 2.19695 | 102.44225 | 19871 ft | 439 kts | 258° |
| 2026-04-28 14:03 | 2.19177 | 102.41213 | 19868 ft | 439 kts | 266° |